MET: Información y Pronóstico Aeronáutico

///////////////////////////////////////////////////////////////////////////////////////////////////////////////////////////////////////////////////////////////////////////////////////////////////////////////////////////////////////////////

Member for

1 año 1 mes
Enviado por meteorologia el Jue, 23/11/2017 - 11:39
22-8

22 DE AGOSTO 2019

INFORMACION METEOROLOGICA AERONAUTICA (METAR) 18:00 UTC

Aeropuerto AEROPARQUE J. NEWBERY

22 - 18:00 METAR SABE 221800Z 06005KT 030V090 CAVOK 12/06 Q1028 NOSIG =

Aeropuerto BAHIA BLANCA

22 - 18:00 METAR SAZB 221800Z 29010KT CAVOK 18/06 Q1026 =

Aeropuerto BARILOCHE

22 - 18:00 METAR SAZS 221800Z 14007KT CAVOK 10/00 Q1024 =

Aeropuerto CATAMARCA

22 - 17:00 METAR SANC 221700Z 32006KT 9999 HZ NSC 22/03 Q1028 =

Aeropuerto CHAPELCO

22 - 18:00 METAR SAZY 221800Z 07008KT 9999 SCT100 BKN200 11/03 Q1023 =

Aeropuerto COMODORO RIVADAVIA

22 - 18:00 METAR SAVC 221800Z 27005KT CAVOK 17/05 Q1024 =

Aeropuerto CORDOBA

22 - 18:00 METAR SACO 221800Z 16008KT CAVOK 22/03 Q1027 NOSIG =

Aeropuerto CORRIENTES

22 - 18:00 METAR SARC 221800Z 23010KT 7000 NSC 19/09 Q1023 =

Aeropuerto EL CALAFATE

22 - 18:00 METAR SAWC 221800Z 05005KT 9999 FEW010 SCT200 06/00 Q1021 =

Aeropuerto EL PALOMAR

22 - 18:00 METAR SADP 221800Z VRB02KT CAVOK 16/03 Q1027 =

Aeropuerto ESQUEL

22 - 18:00 METAR SAVE 221800Z 07007KT CAVOK 10/02 Q1023 =

Aeropuerto EZEIZA

22 - 18:00 METAR SAEZ 221700Z VRB03KT CAVOK 15/06 Q1028 NOSIG =

Aeropuerto FORMOSA

22 - 18:00 METAR SARF 221800Z 23007KT CAVOK 19/13 Q1021 =

Aeropuerto IGUAZU/CATARATAS

22 - 18:00 METAR SARI 221800Z 32006KT CAVOK 27/15 Q1020 =

Aeropuerto JUJUY

22 - 18:00 METAR SASJ 221800Z 14007KT CAVOK 22/03 Q1028 =

Aeropuerto LA RIOJA

22 - 18:00 METAR SANL 221800Z 14005KT 9999 HZ 24/07 Q1026 =

Aeropuerto MALARGUE

22 - 17:00 METAR SAMM 221700Z 36005KT 9999 FU NSC 13/03 Q1028 =

Aeropuerto MAR DEL PLATA

22 - 18:00 METAR SAZM 221800Z 32012KT 9999 FEW025 15/07 Q1026 =

Aeropuerto MENDOZA

22 - 18:00 METAR SAME 221700Z 05007KT CAVOK 17/02 Q1027 =

Aeropuerto MORON

22 - 18:00 METAR SADM 221800Z VRB02KT 8000 NSC 16/07 Q1027 =

Aeropuerto NEUQUEN

22 - 18:00 METAR SAZN 221800Z 07004KT CAVOK 15/04 Q1026 =

Aeropuerto PARANA

22 - 18:00 METAR SAAP 221800Z 14007KT CAVOK 19/06 Q1027 =

Aeropuerto POSADAS

22 - 18:00 METAR SARP 221800Z 18007KT 5000 FUHZ NSC 18/11 Q1022 =

Aeropuerto PUERTO MADRYN

22 - 18:00 METAR SAVY 221800Z 23010KT CAVOK 15/03 Q1024 =

Aeropuerto RECONQUISTA

22 - 18:00 METAR SATR 221800Z 18017KT 8000 NSC 21/06 Q1026 =

Aeropuerto RESISTENCIA

22 - 18:00 METAR SARE 221800Z 17007KT 140V200 CAVOK 21/09 Q1023 =

Aeropuerto RIO CUARTO

22 - 18:00 METAR SAOC 221800Z 18018KT CAVOK 19/04 Q1027 RMK ESTIMATED WIND =

Aeropuerto RIO GALLEGOS

22 - 18:00 METAR SAWG 221800Z 23012KT CAVOK 09/04 Q1020 =

Aeropuerto RIO GRANDE

22 - 18:00 METAR SAWE 221800Z 25006KT 9999 SCT018 07/05 Q1018 =

Aeropuerto ROSARIO

22 - 18:00 METAR SAAR 221800Z 14006KT CAVOK 20/05 Q1026 =

Aeropuerto SALTA

22 - 18:00 METAR SASA 221800Z 09004KT CAVOK 20/03 Q1028 =

Aeropuerto SAN FERNANDO

22 - 18:00 METAR SADF 221800Z 02005KT CAVOK 15/05 Q1028 =

Aeropuerto SAN JUAN

22 - 18:00 METAR SANU 221800Z 36005KT CAVOK 20/03 Q1026 =

Aeropuerto SAN LUIS

22 - 18:00 METAR SAOU 221800Z 27003KT CAVOK 20/04 Q1026 RMK ESTIMATED WIND =

Aeropuerto SAN RAFAEL

22 - 18:00 METAR SAMR 221800Z 09007KT CAVOK 17/02 Q1026 =

Aeropuerto SANTA ROSA

22 - 18:00 METAR SAZR 221800Z 18004KT CAVOK 19/03 Q1026 =

Aeropuerto SANTIAGO DEL ESTERO

22 - 18:00 METAR SANE 221800Z 18008KT CAVOK 24/06 Q1025 =

Aeropuerto SAUCE VIEJO

22 - 18:00 METAR SAAV 221800Z 18007KT CAVOK 19/07 Q1027 =

Aeropuerto TANDIL

22 - 18:00 METAR SAZT 221800Z 32007KT 9999 FEW025 15/05 Q1026 =

Aeropuerto TERMAS DE RIO HONDO

22 - 18:00 METAR SANR 221800Z 27006KT CAVOK 24/05 Q1026 =

Aeropuerto TRELEW

22 - 18:00 METAR SAVT 221800Z 23012KT CAVOK 16/03 Q1024 =

Aeropuerto TUCUMAN

22 - 18:00 METAR SANT 221800Z 18008KT 5000 NSC 22/06 Q1027 =

Aeropuerto USHUAIA

22 - 18:00 METAR SAWH 221800Z 05005KT 9999 BKN045 BKN080 05/00 Q1018 =

Aeropuerto VIEDMA

22 - 18:00 METAR SAVV 221800Z 23012KT CAVOK 17/03 Q1024 =

Aeropuerto VILLA REYNOLDS

22 - 18:00 METAR SAOR 221800Z 00000KT CAVOK 19/05 Q1027 =

 PRONOSTICO DE AERODROMO (TAF) 17:00 UTC

Estación AEROPARQUE J. NEWBERY

22 - 17:00 TAF SABE 221700Z 2218/2318 07005KT CAVOK TX14/2318Z TN09/2310Z BECMG 2302/2304 34005KT BECMG 2306/2308 29005KT BECMG 2317/2318 07005KT =

Estación BAHIA BLANCA

22 - 17:00 TAF SAZB 221700Z 2218/2318 27010KT CAVOK TX18/2318Z TN07/2310Z BECMG 2221/2000 VRB03KT BECMG 2306/2309 36007KT 8000 NSC =

Estación BARILOCHE

22 - 17:00 TAF SAZS 221700Z 2218/2318 16010KT CAVOK TX10/2219Z TN01/2310Z BECMG 2310/2312 VRB03KT BECMG 2314/2316 29010KT 9999 BKN030 BKN090 =

Estación CATAMARCA

22 - 17:00 TAF SANC 221700Z 2218/2318 32005KT CAVOK TX25/2318Z TN10/2310Z BECMG 2303/2306 02020G35KT CAVOK =

Estación CHAPELCO

22 - 17:00 TAF SAZY 221700Z 2218/2318 09003KT CAVOK TX06/2218Z TN01/2309Z BECMG 2300/2303 VRB05KT 5000 BR SCT010 TEMPO 2303/2309 0500 BCFG DZ OCV003 BECMG 2315/2316 5000 DZBR BKN010 =

Estación COMODORO RIVADAVIA

22 - 17:00 TAF SAVC 221700Z 2218/2318 22010KT CAVOK TX17/2218Z TN06/2305Z TEMPO 2220/2224 VRB03KT 9999 SCT040 BECMG 2300/2302 02010KT CAVOK =

Estación CORDOBA

22 - 17:00 TAF SACO 221700Z 2218/2318 09005KT CAVOK TX20/2318Z TN06/2210Z BECMG 2301/2304 34005KT 9999 SCT030 BECMG 2313/2316 05015KT 9999 SCT030 =

Estación CORRIENTES

22 - 17:00 TAF SARC 221700Z 2218/2318 16010KT 8000 NSC TX25/2318Z TN08/2310Z =

Estación EL CALAFATE

22 - 17:00 TAF SAWC 221700Z 2218/2318 10005KT 9999 FEW030 TX07/2218Z TN01/2305Z =

Estación EL PALOMAR

22 - 17:00 TAF SADP 221700Z 2218/2318 07005KT CAVOK TX16/2318Z TN06/2310Z PROB30 2306/2312 36003KT 5000 BR NSC BECMG 2313/2315 CAVOK =

Estación ESQUEL

22 - 17:00 TAF SAVE 221700Z 2218/2318 05005KT CAVOK TX08/2218Z TN00/2212Z BECMG 2222/2224 9999 SCT030 =

Estación EZEIZA

22 - 17:00 TAF SAEZ 221700Z 2218/2318 07005KT CAVOK TX18/2318Z TN06/2310Z PROB30 2306/2312 36003KT 5000 BR NSC BECMG 2313/2315 CAVOK =

Estación FORMOSA

22 - 17:00 TAF SARF 221700Z 2218/2318 16005KT 8000 NSC TX25/2318Z TN10/2310Z =

Estación IGUAZU/CATARATAS

22 - 17:00 TAF SARI 221700Z 2218/2318 27005KT 9999 SCT040 TX27/2219Z TN12/2310Z PROB30 2223/2302 6000 -TSRA OVC025 FEW050CB BECMG 2306/2308 VRB03KT 0800 BCFG BKN020 BECMG 2312/2313 9999 SCT020 =

Estación JUJUY

22 - 17:00 TAF SASJ 221700Z 2218/2318 16010KT CAVOK TX23/2318Z TN08/2310Z BECMG 2302/2305 29005KT =

Estación LA RIOJA

22 - 17:00 TAF SANL 221700Z 2218/2318 VRB03KT CAVOK TX25/2318Z TN08/2310Z BECMG 2301/2304 34005KT CAVOK BECMG 2312/2315 18005KT =

Estación MAR DEL PLATA

22 - 17:00 TAF SAZM 221700Z 2218/2318 32015KT CAVOK TX14/2219Z TN04/2310Z BECMG 2223/2302 29005KT BECMG 2308/2310 4000 BR BECMG 2314/2316 07010KT CAVOK =

Estación MENDOZA

22 - 17:00 TAF SAME 221700Z 2218/2318 VRB03KT CAVOK TX20/2219Z TN04/2310Z BECMG 2218/2220 02010KT BECMG 2301/2303 VRB03KT =

Estación NEUQUEN

22 - 17:00 TAF SAZN 221700Z 2218/2318 VRB03KT CAVOK TX16/2219Z TN07/2310Z BECMG 2302/2304 09005KT BECMG 2314/2316 27005KT =

Estación PARANA

22 - 17:00 TAF SAAP 221700Z 2218/2318 14005KT CAVOK TX18/2218Z TN06/2310Z BECMG 2300/2303 12005KT BECMG 2309/2312 02003KT 5000 BR NSC BECMG 2313/2315 02010KT CAVOK =

Estación POSADAS

22 - 17:00 TAF SARP 221700Z 2218/2318 18005KT 8000 NSC TX25/2318Z TN10/2310Z =

Estación RESISTENCIA

22 - 17:00 TAF SARE 221700Z 2218/2318 16010KT 8000 NSC TX25/2318Z TN08/2310Z =

Estación RIO CUARTO

22 - 17:00 TAF SAOC 221700Z 2218/2318 18015KT CAVOK TX21/2318Z TN06/2310Z BECMG 2301/2304 36010KT BECMG 2313/2316 02020G30KT =

Estación RIO GALLEGOS

22 - 17:00 TAF SAWG 221700Z 2218/2318 23015KT 9999 CAVOK TX10/2218Z TN02/2303Z BECMG 2302/2305 05010G20KT =

Estación RIO GRANDE

22 - 17:00 TAF SAWE 221700Z 2218/2318 22010KT 9999 SCT020 SCT200 TX07/2218Z TN00/2307Z BECMG 2223/2301 29005KT CAVOK PROB30 TEMPO 2300/2306 5000 BR BECMG 2302/2305 14005KT BECMG 2312/2315 03010KT 5000 BR =

Estación ROSARIO

22 - 17:00 TAF SAAR 221700Z 2218/2318 16005KT CAVOK TX19/2219Z TN06/2310Z BECMG 2306/2308 5000 BR TEMPO 2309/2312 0900 BCFG BECMG 2313/2315 02010KT CAVOK =

Estación SALTA

22 - 17:00 TAF SASA 221700Z 2218/2318 VRB03KT CAVOK TX21/2318Z TN04/2310Z BECMG 2300/2303 34005KT 9999 SCT020 BECMG 2314/2317 05010KT =

Estación SAN FERNANDO

22 - 17:00 TAF SADF 221700Z 2218/2318 05005KT CAVOK TX16/2318Z TN07/2310Z BECMG 2223/2301 34003KT PROB30 TEMPO 2307/2311 5000 BR NSC BECMG 2316/2318 05010KT =

Estación SAN JUAN

22 - 17:00 TAF SANU 221700Z 2218/2318 36010KT CAVOK TX24/2219Z TN06/2310Z BECMG 2219/2221 VRB03KT BECMG 2305/2307 36010KT =

Estación SAN LUIS

22 - 17:00 TAF SAOU 221700Z 2218/2318 VRB03KT CAVOK TX23/2219Z TN07/2309Z =

Estación SAN RAFAEL

22 - 17:00 TAF SAMR 221700Z 2218/2318 VRB03KT CAVOK TX20/2219Z TN03/2310Z BECMG 2218/2220 02015KT BECMG 2302/2304 36005KT =

Estación SANTA ROSA

22 - 17:00 TAF SAZR 221700Z 2218/2318 18007KT CAVOK TX22/2318Z TN06/2311Z BECMG 2219/2221 36005KT BECMG 2309/2312 36015KT 5000 BR NSC BECMG 2312/2315 36015KT CAVOK =

Estación SANTIAGO DEL ESTERO

22 - 17:00 TAF SANE 221700Z 2218/2318 16010KT CAVOK TX25/2318Z TN10/2310Z BECMG 2300/2303 36005KT =

Estación SAUCE VIEJO

22 - 17:00 TAF SAAV 221700Z 2218/2318 20005KT CAVOK TX19/2318Z TN07/2310Z BECMG 2300/2303 12005KT BECMG 2309/2312 02003KT 5000 BR NSC BECMG 2313/2315 02010KT CAVOK =

Estación TERMAS DE RIO HONDO

22 - 17:00 TAF SANR 221700Z 2218/2318 27005KT CAVOK TX23/2318Z TN11/2310Z TEMPO 2309/2311 VRB03KT 3000 BR SCT020 BECMG 2313/2316 05010KT CAVOK =

Estación TRELEW

22 - 17:00 TAF SAVT 221700Z 2218/2318 23010G20KT CAVOK TX18/2318Z TN05/2305Z BECMG 2301/2305 07010KT =

Estación TUCUMAN

22 - 17:00 TAF SANT 221700Z 2218/2318 14005KT 5000 FU NSC TX24/2318Z TN09/2310Z BECMG 2300/2303 36005KT 6000 FU NSC =

Estación USHUAIA

22 - 17:00 TAF SAWH 221700Z 2218/2318 VRB03KT 9999 FEW035 BKN070 TX06/2218Z TN02/2306Z BECMG 2303/2305 CAVOK BECMG 2312/2315 02015KT 9999 SCT030 =

Estación VIEDMA

22 - 17:00 TAF SAVV 221700Z 2218/2318 22010KT CAVOK TX17/2218Z TN04/2212Z BECMG 2300/2304 VRB05KT BECMG 2306/2309 36007KT =